Aeroporto :
LOGIN :

Iscrizione | Disclaimer

   EN    FR    IT 

 










Sommario :    VFR   VFR Marginale   IFR   IFR Intensivo   IFR Molto Intensivo
Visibilità : 
Base nubi : 
>= 8 km
>= 3000ft
5 / 8 km
1000 / 3000 ft
1500m / 5 km
500 / 1000 ft
800 / 1500m
200 / 500 ft
< 800m
< 200 ft
Simboli :   Temporali  Nebbia  Neve Forte  Precipitazioni Forti  Vento > 20 kt
SIGMETs :   Varie  Temporali  Ghiacco  Turbolenza  Onda orograficha  Ceneri Vulcaniche







- Altitudine del aeroporto : 1197 ft
- Codice IATA : SPM


ETAD - Spangdahlem Ab

ULTIMO METAR :
  • 270356Z AUTO 03006KT 9999 CLR 18/15 A3028 RMK AO2 SLP224 T01800149 $

METARs OBSOLETI :
  • 270256Z AUTO 03007KT 9999 CLR 19/15 A3027 RMK AO2 SLP221 T01880153 50000 $
  • 270156Z AUTO 03007KT 9999 CLR 20/16 A3028 RMK AO2 SLP223 T01960160 $

TAF TAF ETAD
Valido dal 27 a 04 ore il 28 a 10 ore UTC


270400Z 2704/2810 04009KT 9999 FEW040 QNH3026INS
BECMG 2802/2803 04006KT 8000 BR SKC QNH3027INS
BECMG 2805/2806 05009KT 9999 NSW SKC QNH3026INS TX28/2714Z TN14/2803Z
Nessun NOTAM noto per questo aeroporto.



MetMap, La meteo Aeronautica in un colpo d'occhio ! - Copyright ORBIFLY Dicembre 2007 - Disclaimer

ORBIFLY MET'MAP TEAM :

Programmazione e sviluppo : Alexandra Zaïnal
Concezione e sviluppo : Baudouin d'Aumeries
Co-Programmazione e sviluppo : Marc-Olivier Méhu
Supporto tecnico e logistico : Manuel Goepfert
Aiuto per la traduzione : Arnaldo La Scala

Contatto : metmap@orbifly.com




FONTI E CREDITI :

   NOAA